Time;durP1;ratioP1;P1;durP2;ratioP2;P2;SDS_P1;SDS_P2;PMS_P1;PMS_P2;Temp;Humidity;BMP_temperature;BMP_pressure;BME280_temperature;BME280_humidity;BME280_pressure;Samples;Min_cycle;Max_cycle;Signal;HPM_P1;HPM_P2
2021/04/10 00:02:24;;;;;;;30.30;17.17;;;;;;;2.79;62.35;98781.63;2236437;80;21443;-79
2021/04/10 00:05:26;;;;;;;31.37;17.85;;;;;;;2.78;62.37;98775.64;2235757;80;21125;-81
2021/04/10 00:08:27;;;;;;;27.95;16.87;;;;;;;2.79;62.43;98783.74;2235797;80;21130;-79
2021/04/10 00:11:29;;;;;;;26.35;16.25;;;;;;;2.79;62.43;98772.58;2235874;80;21276;-80
2021/04/10 00:14:31;;;;;;;33.58;16.57;;;;;;;2.79;62.50;98770.00;2235721;80;21129;-81
2021/04/10 00:17:32;;;;;;;25.75;15.75;;;;;;;2.79;62.64;98764.82;2236020;80;21295;-80
2021/04/10 00:20:34;;;;;;;27.93;17.32;;;;;;;2.77;62.63;98767.55;2235766;80;21311;-80
2021/04/10 00:23:42;;;;;;;34.48;16.25;;;;;;;2.76;62.80;98769.79;2235942;80;21287;-81
2021/04/10 00:26:39;;;;;;;29.95;16.67;;;;;;;2.73;62.84;98768.73;2234504;80;21251;-82
2021/04/10 00:29:41;;;;;;;28.35;16.37;;;;;;;2.71;62.77;98771.92;2235828;80;21713;-80
2021/04/10 00:32:43;;;;;;;27.85;16.37;;;;;;;2.68;62.91;98766.20;2235650;80;21149;-80
2021/04/10 00:35:44;;;;;;;31.07;17.30;;;;;;;2.64;63.12;98770.80;2235459;80;21177;-81
2021/04/10 00:38:46;;;;;;;27.45;16.32;;;;;;;2.59;63.11;98759.22;2226065;80;21621;-81
2021/04/10 00:41:47;;;;;;;28.92;16.00;;;;;;;2.55;63.26;98763.33;2207830;81;21122;-81
2021/04/10 00:44:50;;;;;;;22.55;14.93;;;;;;;2.53;63.33;98759.23;2208055;81;21308;-82
2021/04/10 00:47:51;;;;;;;25.85;15.32;;;;;;;2.49;63.54;98763.86;2207832;81;21578;-82
2021/04/10 00:50:53;;;;;;;26.60;15.00;;;;;;;2.48;63.77;98756.23;2208173;80;21272;-81
2021/04/10 00:53:55;;;;;;;26.87;16.82;;;;;;;2.46;63.68;98756.81;2207992;80;21252;-81
2021/04/10 00:56:56;;;;;;;29.63;17.30;;;;;;;2.46;63.90;98758.10;2207860;81;21197;-82
2021/04/10 00:59:58;;;;;;;24.72;15.53;;;;;;;2.47;64.05;98759.73;2207505;80;21161;-82
2021/04/10 01:03:00;;;;;;;29.25;16.87;;;;;;;2.48;64.24;98767.87;2207660;81;21130;-82
2021/04/10 01:06:02;;;;;;;24.90;14.47;;;;;;;2.50;64.19;98759.50;2207834;81;21562;-82
2021/04/10 01:09:04;;;;;;;28.23;14.70;;;;;;;2.52;64.36;98762.30;2207905;81;21126;-81
2021/04/10 01:12:06;;;;;;;27.95;15.18;;;;;;;2.55;64.37;98764.63;2207819;81;21130;-82
2021/04/10 01:15:08;;;;;;;22.70;15.20;;;;;;;2.57;64.40;98758.05;2208035;81;21296;-81
2021/04/10 01:18:10;;;;;;;22.58;14.78;;;;;;;2.59;64.35;98760.03;2208258;81;21561;-82
2021/04/10 01:21:12;;;;;;;25.85;15.53;;;;;;;2.62;64.31;98753.30;2208193;81;21158;-83
2021/04/10 01:24:13;;;;;;;27.73;16.40;;;;;;;2.65;64.29;98758.23;2208363;80;21296;-81
2021/04/10 01:27:15;;;;;;;27.25;15.55;;;;;;;2.68;64.38;98762.33;2207965;81;21134;-82
2021/04/10 01:30:17;;;;;;;30.52;17.20;;;;;;;2.71;64.36;98759.00;2208365;81;21293;-81
2021/04/10 01:33:19;;;;;;;21.10;14.50;;;;;;;2.71;64.34;98749.95;2208721;81;21657;-82
2021/04/10 01:36:22;;;;;;;24.77;15.18;;;;;;;2.74;64.39;98757.91;2208190;81;21605;-81
2021/04/10 01:39:24;;;;;;;24.60;16.10;;;;;;;2.76;64.43;98752.98;2207937;80;21304;-81
2021/04/10 01:42:27;;;;;;;25.60;15.28;;;;;;;2.79;64.47;98756.59;2207977;81;21794;-81
2021/04/10 01:45:29;;;;;;;24.63;14.85;;;;;;;2.81;64.44;98751.28;2207938;81;21162;-82
2021/04/10 01:48:31;;;;;;;25.27;17.10;;;;;;;2.83;64.70;98747.64;2208014;81;21279;-81
2021/04/10 01:51:33;;;;;;;25.85;15.45;;;;;;;2.85;64.61;98747.51;2208321;81;21307;-82
2021/04/10 01:54:34;;;;;;;26.95;15.88;;;;;;;2.88;64.75;98748.53;2207964;81;21177;-82
2021/04/10 01:57:37;;;;;;;22.50;14.68;;;;;;;2.90;64.72;98745.81;2208007;81;21306;-82
2021/04/10 02:00:38;;;;;;;25.52;15.78;;;;;;;2.91;64.69;98739.20;2208343;81;21177;-81
2021/04/10 02:03:40;;;;;;;29.32;15.70;;;;;;;2.89;64.77;98743.70;2208326;80;21181;-81
2021/04/10 02:06:43;;;;;;;20.43;13.43;;;;;;;2.89;64.76;98742.41;2208180;81;21185;-82
2021/04/10 02:09:45;;;;;;;24.20;14.80;;;;;;;2.89;64.88;98733.83;2208312;81;21157;-81
2021/04/10 02:12:46;;;;;;;24.12;14.25;;;;;;;2.85;64.84;98732.81;2207972;81;21751;-81
2021/04/10 02:15:48;;;;;;;27.15;15.18;;;;;;;2.83;64.89;98736.45;2208214;81;21669;-82
2021/04/10 02:18:50;;;;;;;25.43;15.68;;;;;;;2.78;64.93;98732.98;2207989;81;21553;-82
2021/04/10 02:21:52;;;;;;;26.07;15.13;;;;;;;2.75;65.00;98741.00;2208200;81;21291;-82
2021/04/10 02:24:53;;;;;;;28.38;15.13;;;;;;;2.71;64.96;98729.73;2207959;81;21582;-81
2021/04/10 02:27:55;;;;;;;25.80;15.18;;;;;;;2.66;65.05;98728.84;2207944;81;21134;-80
2021/04/10 02:30:57;;;;;;;27.80;15.43;;;;;;;2.63;65.30;98729.56;2208271;81;21319;-81
2021/04/10 02:34:00;;;;;;;28.15;15.08;;;;;;;2.60;65.32;98731.13;2208304;81;21138;-82
2021/04/10 02:37:02;;;;;;;28.60;15.90;;;;;;;2.55;65.38;98728.43;2208186;80;21261;-82
2021/04/10 02:40:03;;;;;;;30.12;14.40;;;;;;;2.52;65.33;98726.11;2225530;80;21531;-82
2021/04/10 02:43:06;;;;;;;21.37;15.18;;;;;;;2.48;65.33;98729.91;2235856;80;21271;-82
2021/04/10 02:46:08;;;;;;;30.37;16.70;;;;;;;2.46;65.37;98732.25;2236097;80;21271;-81
2021/04/10 02:49:10;;;;;;;29.10;16.48;;;;;;;2.41;65.54;98733.95;2236178;80;21332;-81
2021/04/10 02:52:12;;;;;;;30.37;16.50;;;;;;;2.38;65.54;98734.66;2235973;80;21719;-82
2021/04/10 02:55:13;;;;;;;31.37;17.30;;;;;;;2.35;65.56;98734.92;2235828;80;21719;-82
2021/04/10 02:58:15;;;;;;;27.48;15.68;;;;;;;2.33;65.59;98729.88;2235818;80;21149;-81
2021/04/10 03:01:17;;;;;;;30.60;17.05;;;;;;;2.33;65.70;98723.42;2235774;80;21173;-82
2021/04/10 03:04:19;;;;;;;29.27;16.05;;;;;;;2.30;65.84;98724.98;2235888;80;21176;-81
2021/04/10 03:07:20;;;;;;;24.65;16.45;;;;;;;2.28;65.87;98726.38;2236004;80;21288;-81
2021/04/10 03:10:22;;;;;;;28.38;17.05;;;;;;;2.23;65.92;98731.12;2236062;80;21252;-82
2021/04/10 03:13:24;;;;;;;32.73;16.85;;;;;;;2.18;65.95;98722.91;2236057;80;21302;-82
2021/04/10 03:16:26;;;;;;;27.32;16.15;;;;;;;2.14;65.98;98730.58;2236152;80;21279;-82
2021/04/10 03:19:27;;;;;;;32.50;17.80;;;;;;;2.11;66.05;98727.44;2236188;80;21292;-82
2021/04/10 03:22:29;;;;;;;26.52;15.75;;;;;;;2.07;66.07;98725.56;2236196;80;21165;-82
2021/04/10 03:25:31;;;;;;;26.15;16.85;;;;;;;2.04;66.15;98718.08;2236075;80;21121;-82
2021/04/10 03:28:32;;;;;;;30.70;15.90;;;;;;;1.99;66.33;98714.56;2236167;80;21299;-81
2021/04/10 03:31:34;;;;;;;28.05;15.98;;;;;;;1.96;66.32;98708.36;2235833;80;21125;-81
2021/04/10 03:34:36;;;;;;;32.10;18.20;;;;;;;1.92;66.35;98710.86;2236133;80;21327;-82
2021/04/10 03:37:37;;;;;;;30.55;16.70;;;;;;;1.90;66.44;98713.20;2236162;80;21280;-82
2021/04/10 03:40:39;;;;;;;28.00;15.58;;;;;;;1.86;66.53;98717.80;2235992;80;21660;-81
2021/04/10 03:43:41;;;;;;;21.87;14.63;;;;;;;1.84;66.68;98726.16;2236250;80;21160;-82
2021/04/10 03:46:43;;;;;;;22.90;15.08;;;;;;;1.80;66.68;98717.48;2207201;80;21133;-82
2021/04/10 03:49:46;;;;;;;30.30;16.27;;;;;;;1.77;66.80;98725.00;2235829;80;21141;-83
2021/04/10 03:52:47;;;;;;;26.95;16.67;;;;;;;1.74;66.72;98718.81;2236070;80;21247;-83
2021/04/10 03:55:49;;;;;;;26.75;15.15;;;;;;;1.71;66.76;98727.59;2236029;80;21696;-82
2021/04/10 03:58:51;;;;;;;26.07;15.58;;;;;;;1.68;66.85;98727.85;2236093;80;21601;-82
2021/04/10 04:01:52;;;;;;;24.70;14.75;;;;;;;1.68;66.96;98729.61;2236132;80;21295;-81
2021/04/10 04:04:54;;;;;;;26.82;15.40;;;;;;;1.67;67.00;98733.14;2235972;80;21835;-82
2021/04/10 04:07:55;;;;;;;24.92;15.13;;;;;;;1.65;67.07;98727.29;2236137;80;21098;-82
2021/04/10 04:10:57;;;;;;;25.85;15.78;;;;;;;1.67;67.09;98733.96;2235886;80;21284;-81
2021/04/10 04:13:59;;;;;;;23.70;15.05;;;;;;;1.70;67.11;98736.28;2235737;80;21295;-81
2021/04/10 04:17:02;;;;;;;26.10;13.60;;;;;;;1.77;67.04;98732.75;2235733;80;21315;-81
2021/04/10 04:20:04;;;;;;;25.17;15.18;;;;;;;1.89;67.04;98737.39;2235397;80;21263;-82
2021/04/10 04:23:06;;;;;;;21.60;13.48;;;;;;;2.00;66.98;98738.15;2235674;80;21338;-81
2021/04/10 04:26:08;;;;;;;21.87;14.03;;;;;;;2.21;66.89;98737.36;2236089;80;21291;-82
2021/04/10 04:29:10;;;;;;;20.50;14.28;;;;;;;2.38;66.67;98743.26;2236005;80;21711;-82
2021/04/10 04:32:11;;;;;;;20.68;12.85;;;;;;;2.55;66.44;98734.08;2236125;80;21129;-81
2021/04/10 04:35:13;;;;;;;17.45;12.13;;;;;;;2.75;66.20;98732.43;2235947;80;21716;-81
2021/04/10 04:38:15;;;;;;;21.15;12.85;;;;;;;3.00;65.79;98738.91;2235980;80;21565;-82
2021/04/10 04:41:16;;;;;;;21.45;13.38;;;;;;;3.22;65.50;98741.30;2188390;81;21566;-81
2021/04/10 04:44:18;;;;;;;21.87;13.22;;;;;;;3.46;65.48;98740.11;2207979;81;21166;-81
2021/04/10 04:47:20;;;;;;;20.60;13.78;;;;;;;3.75;64.94;98733.66;2208248;80;21301;-81
2021/04/10 04:50:22;;;;;;;31.40;15.00;;;;;;;3.97;64.40;98738.11;2207859;80;21186;-82
2021/04/10 04:53:24;;;;;;;20.25;13.25;;;;;;;4.22;63.97;98739.81;2208379;81;21700;-82
2021/04/10 04:56:25;;;;;;;23.18;14.80;;;;;;;4.40;63.72;98752.41;2208342;81;21146;-81
2021/04/10 04:59:26;;;;;;;17.32;12.18;;;;;;;4.63;63.50;98758.55;2208186;81;21669;-82
2021/04/10 05:02:29;;;;;;;20.70;12.05;;;;;;;4.88;62.92;98758.41;2208428;81;21189;-81
2021/04/10 05:05:31;;;;;;;19.30;12.23;;;;;;;5.11;62.85;98748.80;2208308;81;21300;-82
2021/04/10 05:08:33;;;;;;;16.82;10.93;;;;;;;5.37;62.47;98749.43;2208375;81;21305;-81
2021/04/10 05:11:35;;;;;;;16.20;11.57;;;;;;;5.59;61.77;98746.92;2208045;81;21187;-82
2021/04/10 05:14:37;;;;;;;20.37;11.40;;;;;;;5.78;61.46;98751.98;2208135;80;21138;-81
2021/04/10 05:17:38;;;;;;;15.38;11.38;;;;;;;5.98;61.17;98750.08;2208392;81;21158;-80
2021/04/10 05:20:40;;;;;;;16.10;10.30;;;;;;;6.21;60.91;98755.12;2208237;81;21157;-81
2021/04/10 05:23:42;;;;;;;16.90;12.25;;;;;;;6.38;60.49;98749.56;2208337;81;21260;-81
2021/04/10 05:26:43;;;;;;;17.80;12.30;;;;;;;6.58;59.98;98753.27;2208092;81;21673;-81
2021/04/10 05:29:46;;;;;;;17.12;11.38;;;;;;;6.67;59.73;98754.47;2208204;81;21732;-82
2021/04/10 05:32:48;;;;;;;17.67;11.85;;;;;;;6.75;59.96;98756.31;2208215;81;21308;-81
2021/04/10 05:35:49;;;;;;;15.32;11.38;;;;;;;6.78;59.75;98769.03;2208059;81;21129;-82
2021/04/10 05:38:51;;;;;;;15.53;10.68;;;;;;;6.81;59.60;98768.23;2208037;80;21252;-82
2021/04/10 05:41:53;;;;;;;16.62;11.45;;;;;;;6.85;59.66;98773.44;2235130;80;21292;-82
2021/04/10 05:44:55;;;;;;;17.82;11.08;;;;;;;6.90;59.57;98761.77;2235963;80;21649;-82
2021/04/10 05:47:57;;;;;;;17.12;11.30;;;;;;;7.00;59.65;98767.67;2235982;80;21291;-82
2021/04/10 05:50:58;;;;;;;16.02;11.30;;;;;;;7.13;59.40;98775.86;2236318;80;21327;-81
2021/04/10 05:54:00;;;;;;;17.00;10.82;;;;;;;7.26;59.01;98775.45;2236096;80;21165;-83
2021/04/10 05:57:02;;;;;;;15.50;11.05;;;;;;;7.35;58.52;98779.72;2236257;80;21299;-83
2021/04/10 06:00:04;;;;;;;18.90;11.22;;;;;;;7.44;58.60;98781.86;2235977;80;21279;-82
2021/04/10 06:03:06;;;;;;;15.58;11.12;;;;;;;7.51;58.32;98785.48;2236027;80;21545;-82
2021/04/10 06:06:10;;;;;;;16.02;11.45;;;;;;;7.53;58.30;98797.85;2236276;80;21264;-83
2021/04/10 06:09:13;;;;;;;14.87;10.50;;;;;;;7.56;58.26;98797.04;2236290;80;21323;-82
2021/04/10 06:12:15;;;;;;;13.55;10.30;;;;;;;7.67;58.48;98796.73;2236588;80;21511;-82
2021/04/10 06:15:17;;;;;;;15.88;10.50;;;;;;;7.78;58.18;98785.72;2235849;80;21291;-82
2021/04/10 06:18:19;;;;;;;17.12;12.20;;;;;;;7.88;58.36;98788.98;2236543;80;21145;-80
2021/04/10 06:21:21;;;;;;;19.95;12.58;;;;;;;8.01;58.25;98801.05;2236254;80;21175;-81
2021/04/10 06:24:23;;;;;;;18.73;11.88;;;;;;;8.13;58.26;98797.64;2236224;80;21144;-82
2021/04/10 06:27:25;;;;;;;14.28;11.75;;;;;;;8.22;58.17;98795.36;2236323;80;21315;-81
2021/04/10 06:30:26;;;;;;;16.77;12.25;;;;;;;8.32;58.03;98798.66;2236025;80;21296;-80
2021/04/10 06:33:28;;;;;;;18.25;11.75;;;;;;;8.44;58.03;98808.30;2235915;80;21310;-80
2021/04/10 06:36:30;;;;;;;18.87;12.30;;;;;;;8.52;57.58;98803.89;2235848;80;21165;-80
2021/04/10 06:39:32;;;;;;;17.70;11.95;;;;;;;8.64;58.01;98806.16;2233140;80;21291;-81
2021/04/10 06:42:34;;;;;;;17.07;10.82;;;;;;;8.76;57.84;98804.34;2208337;81;21158;-81
2021/04/10 06:45:36;;;;;;;14.47;9.73;;;;;;;8.92;58.01;98801.38;2208151;81;21705;-85
2021/04/10 06:48:38;;;;;;;14.65;9.35;;;;;;;9.08;57.50;98795.64;2208299;81;21276;-80
2021/04/10 06:51:40;;;;;;;10.45;7.90;;;;;;;9.29;57.18;98796.37;2207950;81;21319;-80
2021/04/10 06:54:42;;;;;;;8.80;7.28;;;;;;;9.50;56.08;98792.36;2207874;81;22277;-81
2021/04/10 06:57:43;;;;;;;9.38;7.75;;;;;;;9.71;56.06;98790.48;2208550;81;21138;-85
2021/04/10 07:00:45;;;;;;;11.43;8.45;;;;;;;9.94;56.07;98784.77;2208045;81;21129;-82
2021/04/10 07:03:50;;;;;;;11.25;7.70;;;;;;;10.18;55.72;98789.03;2208314;81;21551;-80
2021/04/10 07:06:52;;;;;;;12.58;7.37;;;;;;;10.40;55.51;98782.17;2208460;81;21303;-84
2021/04/10 07:09:53;;;;;;;10.95;7.28;;;;;;;10.64;54.99;98786.39;2208701;81;21281;-83
2021/04/10 07:12:55;;;;;;;12.18;8.48;;;;;;;10.87;54.74;98788.94;2208148;81;21280;-83
2021/04/10 07:15:57;;;;;;;12.20;7.53;;;;;;;11.13;54.58;98795.05;2208068;81;21154;-84
2021/04/10 07:19:00;;;;;;;8.13;6.45;;;;;;;11.36;53.97;98784.79;2208179;81;21260;-84
2021/04/10 07:22:02;;;;;;;8.98;6.50;;;;;;;11.60;53.83;98786.77;2208387;81;21142;-81
2021/04/10 07:25:04;;;;;;;10.13;6.28;;;;;;;11.82;52.86;98779.30;2208364;81;21177;-84
2021/04/10 07:28:06;;;;;;;8.40;5.87;;;;;;;12.02;53.05;98783.94;2208575;81;21303;-89
2021/04/10 07:31:08;;;;;;;7.12;5.65;;;;;;;12.21;52.35;98779.38;2208571;81;21126;-85
2021/04/10 07:34:10;;;;;;;8.83;5.75;;;;;;;12.38;52.31;98774.68;2208388;81;21182;-91
2021/04/10 07:37:12;;;;;;;8.65;5.65;;;;;;;12.55;51.88;98777.85;2209118;81;21307;-90
2021/04/10 07:40:14;;;;;;;7.53;5.37;;;;;;;12.69;51.13;98776.42;2208349;80;22400;-88
2021/04/10 07:43:15;;;;;;;13.50;5.42;;;;;;;12.86;50.89;98782.20;2209106;81;21249;-85
2021/04/10 07:46:17;;;;;;;10.85;5.33;;;;;;;13.03;50.40;98775.64;2209246;81;21248;-88
2021/04/10 07:49:19;;;;;;;6.53;5.30;;;;;;;13.20;49.46;98768.80;2208663;81;21126;-87
2021/04/10 07:52:21;;;;;;;7.03;4.97;;;;;;;13.35;49.42;98772.92;2208075;81;21279;-88
2021/04/10 07:55:22;;;;;;;7.80;5.42;;;;;;;13.50;48.40;98764.88;2208503;81;21763;-88
2021/04/10 07:58:24;;;;;;;11.10;5.10;;;;;;;13.69;49.09;98778.29;2208650;81;21166;-87
2021/04/10 08:01:26;;;;;;;8.68;6.10;;;;;;;13.87;47.14;98779.35;2209148;81;21190;-87
2021/04/10 08:04:38;;;;;;;11.95;6.35;;;;;;;13.99;47.10;98774.81;2208499;81;21292;-85
2021/04/10 08:07:40;;;;;;;7.67;6.10;;;;;;;14.11;47.52;98770.09;2208337;81;21160;-86
2021/04/10 08:10:43;;;;;;;6.17;4.95;;;;;;;14.38;46.54;98765.66;2208382;81;21756;-85
2021/04/10 08:13:44;;;;;;;8.85;6.33;;;;;;;14.38;46.54;98765.66;2208479;81;21300;-88
2021/04/10 08:16:46;;;;;;;8.98;5.70;;;;;;;14.53;46.46;98769.42;2209413;81;21653;-85
2021/04/10 08:19:48;;;;;;;9.13;6.37;;;;;;;14.65;45.69;98773.59;2209160;81;21309;-87
2021/04/10 08:22:50;;;;;;;9.10;5.85;;;;;;;14.76;45.04;98764.55;2208871;81;21296;-88
2021/04/10 08:25:54;;;;;;;8.30;5.92;;;;;;;14.88;45.15;98771.31;2209425;81;21147;-87
2021/04/10 08:29:05;;;;;;;10.45;5.87;;;;;;;14.99;44.67;98764.09;2209269;81;21261;-85
2021/04/10 08:32:07;;;;;;;9.30;5.70;;;;;;;15.08;44.98;98760.21;2209206;81;21146;-89
2021/04/10 08:35:09;;;;;;;10.72;6.35;;;;;;;15.19;43.79;98768.02;2208963;81;21622;-85
2021/04/10 08:38:15;;;;;;;10.13;6.47;;;;;;;15.26;43.69;98771.42;2208265;80;21055;-83
2021/04/10 08:41:22;;;;;;;8.93;6.17;;;;;;;15.35;43.98;98764.89;2221541;80;21197;-84
2021/04/10 08:44:31;;;;;;;7.40;5.47;;;;;;;15.46;43.24;98764.77;2237207;80;21125;-82
2021/04/10 08:47:32;;;;;;;10.13;6.28;;;;;;;15.55;42.67;98766.16;2235864;80;21189;-84
2021/04/10 08:50:37;;;;;;;7.15;5.95;;;;;;;15.66;41.81;98766.54;2237080;80;21288;-87
2021/04/10 08:53:53;;;;;;;;;;;;;;;;;;;;;
2021/04/10 08:56:56;;;;;;;9.88;6.45;;;;;;;15.89;41.51;98762.84;2252101;79;22848;-85
2021/04/10 09:00:04;;;;;;;8.10;6.12;;;;;;;15.95;41.60;98765.97;2215349;80;21150;-86
2021/04/10 09:03:12;;;;;;;9.30;6.35;;;;;;;16.08;41.39;98763.73;2215836;80;21698;-84
2021/04/10 09:06:12;;;;;;;9.93;5.97;;;;;;;16.21;40.48;98772.91;2212761;80;21139;-85
2021/04/10 09:09:17;;;;;;;9.83;6.60;;;;;;;16.33;40.04;98773.83;2215603;80;21163;-83
2021/04/10 09:12:32;;;;;;;;;;;;;;;;;;;;;
2021/04/10 09:15:29;;;;;;;11.48;7.33;;;;;;;16.57;40.17;98768.77;2213282;80;21288;-89
2021/04/10 09:18:30;;;;;;;12.63;7.03;;;;;;;16.68;39.37;98776.83;2215933;80;21146;-91
2021/04/10 09:21:32;;;;;;;13.48;6.67;;;;;;;16.78;39.77;98765.75;2215929;80;21320;-89
2021/04/10 09:24:34;;;;;;;13.08;8.65;;;;;;;16.85;38.79;98769.15;2216252;80;21299;-88
2021/04/10 09:27:35;;;;;;;10.45;6.30;;;;;;;16.93;38.03;98764.91;2215658;80;21142;-89
2021/04/10 09:30:39;;;;;;;20.40;10.90;;;;;;;16.99;38.10;98767.16;2215708;80;21753;-88
2021/04/10 09:33:44;;;;;;;15.83;10.63;;;;;;;17.09;37.73;98773.27;2215471;80;21268;-92
2021/04/10 09:36:52;;;;;;;14.63;7.67;;;;;;;17.18;38.19;98774.59;2202172;80;21190;-88
2021/04/10 09:39:57;;;;;;;15.75;6.62;;;;;;;17.26;37.96;98777.75;2215910;80;21123;-84
2021/04/10 09:43:10;;;;;;;8.90;7.65;;;;;;;17.28;36.48;98772.23;2215793;80;21491;-84
2021/04/10 09:46:15;;;;;;;15.63;8.53;;;;;;;17.35;35.93;98776.43;2215496;80;21241;-83
2021/04/10 10:15:33;;;;;;;10.43;6.35;;;;;;;18.07;35.44;98760.65;1939460;86;21387;-88
2021/04/10 10:18:35;;;;;;;8.30;6.53;;;;;;;18.13;34.88;98761.08;1934277;90;21767;-88
2021/04/10 10:21:36;;;;;;;11.40;6.35;;;;;;;18.19;34.24;98758.83;1911765;92;21624;-85
2021/04/10 10:24:38;;;;;;;11.57;7.35;;;;;;;18.25;34.16;98755.80;1992514;88;21728;-81
2021/04/10 10:27:40;;;;;;;7.85;5.67;;;;;;;18.31;34.36;98760.71;1992126;88;21265;-85
2021/04/10 10:30:48;;;;;;;8.75;5.47;;;;;;;18.44;35.92;98753.34;1991393;88;21189;-83
2021/04/10 10:33:49;;;;;;;9.07;5.90;;;;;;;18.57;33.99;98761.61;1991231;88;21245;-83
2021/04/10 10:36:53;;;;;;;12.20;7.03;;;;;;;18.81;34.77;98762.43;1994067;88;21542;-82
2021/04/10 10:39:55;;;;;;;10.23;6.65;;;;;;;19.04;34.85;98760.30;1996379;88;21275;-82
2021/04/10 10:42:56;;;;;;;9.40;6.92;;;;;;;19.18;35.76;98758.98;1987954;88;21249;-82
2021/04/10 10:46:02;;;;;;;9.88;5.47;;;;;;;19.30;34.63;98760.31;1990647;88;21272;-81
2021/04/10 10:49:04;;;;;;;10.72;5.53;;;;;;;19.39;34.71;98760.23;2055898;81;21653;-82
2021/04/10 10:52:08;;;;;;;11.20;7.15;;;;;;;19.40;32.43;98762.36;2151246;81;21334;-82
2021/04/10 10:55:10;;;;;;;16.82;8.50;;;;;;;19.27;32.58;98754.92;2145714;81;21153;-83
2021/04/10 10:58:13;;;;;;;10.05;6.15;;;;;;;19.29;32.92;98758.67;2151538;81;21393;-82
2021/04/10 11:01:14;;;;;;;12.50;7.92;;;;;;;19.27;32.35;98756.25;2147879;81;21802;-81
2021/04/10 11:04:17;;;;;;;9.95;8.23;;;;;;;19.23;31.38;98752.98;2147558;80;21220;-81
2021/04/10 11:07:20;;;;;;;12.45;7.55;;;;;;;19.24;31.77;98758.58;2150552;80;21333;-81
2021/04/10 11:10:24;;;;;;;12.47;6.97;;;;;;;19.30;31.68;98756.33;2154259;80;21342;-82
2021/04/10 11:13:25;;;;;;;7.35;5.72;;;;;;;19.41;32.65;98750.17;2152287;81;21181;-81
2021/04/10 11:16:27;;;;;;;7.75;6.62;;;;;;;19.50;32.24;98740.80;2140178;80;21205;-81
2021/04/10 11:19:31;;;;;;;7.97;5.20;;;;;;;19.63;31.16;98742.91;2134336;81;21327;-81
2021/04/10 11:22:33;;;;;;;6.22;5.62;;;;;;;19.71;31.21;98748.64;2167928;81;21855;-81
2021/04/10 11:25:35;;;;;;;7.40;5.20;;;;;;;19.76;30.71;98742.63;2142402;81;21314;-80
2021/04/10 11:28:37;;;;;;;14.40;8.30;;;;;;;19.75;32.10;98746.30;2144081;81;21296;-80
2021/04/10 11:31:38;;;;;;;10.43;7.33;;;;;;;19.77;31.01;98747.70;2145212;80;21349;-82
2021/04/10 11:34:41;;;;;;;9.40;5.95;;;;;;;19.72;30.96;98748.12;2137197;81;21350;-82
2021/04/10 11:37:45;;;;;;;11.28;6.50;;;;;;;19.69;31.47;98746.75;2164452;81;21342;-83
2021/04/10 11:40:51;;;;;;;8.00;6.35;;;;;;;19.64;31.49;98743.98;2159230;81;21291;-83
2021/04/10 11:43:53;;;;;;;8.90;5.12;;;;;;;19.57;31.05;98740.17;2149179;81;21346;-83
2021/04/10 11:46:55;;;;;;;14.38;7.90;;;;;;;19.58;32.06;98739.64;2147679;81;21629;-81
2021/04/10 11:49:56;;;;;;;6.85;5.40;;;;;;;19.69;31.01;98736.13;2145620;81;21319;-81
2021/04/10 11:52:59;;;;;;;5.80;4.55;;;;;;;19.71;30.62;98731.38;2159122;81;21210;-81
2021/04/10 11:56:00;;;;;;;5.67;3.98;;;;;;;19.74;31.01;98728.76;2158709;80;21793;-80
2021/04/10 11:59:02;;;;;;;5.10;4.05;;;;;;;19.74;30.13;98723.45;2147170;81;21209;-80
2021/04/10 12:02:04;;;;;;;6.92;4.10;;;;;;;19.69;30.02;98727.36;2138226;81;21153;-80
2021/04/10 12:05:05;;;;;;;13.00;4.40;;;;;;;19.62;29.25;98729.34;2131356;81;21347;-80
2021/04/10 12:08:08;;;;;;;5.05;3.87;;;;;;;19.56;29.71;98723.92;2155016;81;21315;-81
2021/04/10 12:11:10;;;;;;;5.80;4.20;;;;;;;19.53;29.28;98730.21;2138998;81;21191;-80
2021/04/10 12:14:15;;;;;;;5.45;3.67;;;;;;;19.46;30.52;98725.55;2143904;81;21235;-80
2021/04/10 12:17:17;;;;;;;4.45;3.52;;;;;;;19.37;29.66;98723.80;2123552;82;21360;-80
2021/04/10 12:20:19;;;;;;;7.35;3.87;;;;;;;19.31;29.56;98728.22;2141081;81;21157;-81
2021/04/10 12:23:22;;;;;;;4.67;3.60;;;;;;;19.30;29.66;98719.16;2147115;82;21322;-82
2021/04/10 12:26:23;;;;;;;4.80;3.30;;;;;;;19.30;29.45;98723.15;2137035;81;21299;-82
2021/04/10 12:29:27;;;;;;;5.45;3.55;;;;;;;19.34;28.83;98721.63;2139539;81;21338;-86
2021/04/10 12:32:32;;;;;;;9.20;4.25;;;;;;;19.36;29.02;98722.19;2144036;81;21346;-80
2021/04/10 12:35:35;;;;;;;5.05;3.40;;;;;;;19.44;28.34;98719.16;2135215;80;21321;-84
2021/04/10 12:38:42;;;;;;;5.80;3.37;;;;;;;19.56;28.55;98722.59;2140317;81;21208;-84
2021/04/10 12:41:51;;;;;;;7.40;3.67;;;;;;;19.68;28.12;98718.58;2141204;80;21180;-83
2021/04/10 12:45:25;;;;;;;8.23;3.45;;;;;;;19.74;27.78;98722.13;2134373;80;21594;-84
2021/04/10 12:52:26;;;;;;;;;;;;;;;;;;;;;
2021/04/10 13:20:45;;;;;;;8.25;5.00;;;;;;;19.51;30.02;98725.66;2398707;74;22813;-84
2021/04/10 13:23:46;;;;;;;5.78;4.65;;;;;;;19.50;29.94;98722.20;2361782;75;21560;-88
2021/04/10 13:26:51;;;;;;;7.55;4.87;;;;;;;19.50;29.38;98724.86;2361583;75;21263;-84
2021/04/10 13:29:52;;;;;;;7.45;4.97;;;;;;;19.45;29.37;98714.66;2361539;75;22250;-84
2021/04/10 13:32:54;;;;;;;5.65;4.53;;;;;;;19.39;29.42;98718.27;2361566;75;21108;-83
2021/04/10 13:35:56;;;;;;;10.75;7.47;;;;;;;19.32;29.50;98720.53;2361813;75;21215;-83
2021/04/10 13:38:58;;;;;;;7.37;4.50;;;;;;;19.23;29.74;98717.96;2361716;75;21069;-84
2021/04/10 13:41:59;;;;;;;7.20;4.90;;;;;;;19.15;29.98;98722.83;2361988;75;21701;-86
2021/04/10 13:45:01;;;;;;;6.30;3.87;;;;;;;19.06;29.87;98718.41;2361718;75;21250;-83
2021/04/10 13:48:03;;;;;;;9.98;4.05;;;;;;;19.01;30.16;98719.61;2362021;75;21247;-85
2021/04/10 13:51:05;;;;;;;7.33;4.35;;;;;;;19.04;30.37;98722.63;2361901;75;21290;-83
2021/04/10 13:54:07;;;;;;;7.20;5.55;;;;;;;19.13;30.89;98719.61;2361621;75;21123;-84
2021/04/10 13:57:09;;;;;;;7.92;4.90;;;;;;;19.26;30.49;98710.84;2361945;75;21136;-85
2021/04/10 14:00:12;;;;;;;8.55;5.08;;;;;;;19.38;30.82;98710.80;2361577;75;21097;-85
2021/04/10 14:03:13;;;;;;;6.15;4.65;;;;;;;19.41;30.20;98709.02;2361713;75;21243;-85
2021/04/10 14:06:15;;;;;;;7.55;5.10;;;;;;;19.43;31.01;98710.11;2361439;75;21104;-85
2021/04/10 14:09:17;;;;;;;9.25;5.17;;;;;;;19.47;30.40;98714.69;2361925;75;21301;-85
2021/04/10 14:12:19;;;;;;;5.47;4.95;;;;;;;19.53;30.07;98708.97;2361870;75;21572;-83
2021/04/10 14:15:20;;;;;;;10.20;5.45;;;;;;;19.58;30.04;98711.23;2362123;75;21274;-85
2021/04/10 14:18:23;;;;;;;8.73;7.83;;;;;;;19.58;29.81;98709.11;2359349;75;21141;-84
2021/04/10 14:21:25;;;;;;;11.10;6.87;;;;;;;19.58;30.15;98703.27;2346029;76;21283;-85
2021/04/10 14:24:27;;;;;;;8.28;5.60;;;;;;;19.63;29.61;98705.20;2345796;76;21124;-86
2021/04/10 14:27:29;;;;;;;11.25;5.85;;;;;;;19.66;29.44;98701.25;2346084;76;21263;-85
2021/04/10 14:30:31;;;;;;;16.00;9.38;;;;;;;19.69;29.59;98699.47;2345666;76;21119;-86
2021/04/10 14:33:33;;;;;;;9.73;6.45;;;;;;;19.72;29.60;98698.98;2345798;76;21140;-85
2021/04/10 14:36:35;;;;;;;16.02;10.20;;;;;;;19.76;29.37;98706.25;2345823;76;21275;-86
2021/04/10 14:39:37;;;;;;;9.75;6.03;;;;;;;19.71;29.47;98696.05;2345896;76;21286;-85
2021/04/10 14:42:38;;;;;;;7.85;5.15;;;;;;;19.58;29.34;98700.61;2345917;76;21282;-83
2021/04/10 14:45:40;;;;;;;7.72;6.05;;;;;;;19.47;28.52;98704.07;2345896;76;21696;-85
2021/04/10 14:48:45;;;;;;;30.00;17.30;;;;;;;19.39;28.77;98712.97;2345696;76;21595;-85
2021/04/10 14:51:47;;;;;;;11.85;7.22;;;;;;;19.33;28.92;98708.06;2345483;76;21267;-85
2021/04/10 14:54:48;;;;;;;9.45;5.75;;;;;;;19.23;28.74;98713.17;2345623;76;21271;-85
2021/04/10 14:57:50;;;;;;;8.60;5.70;;;;;;;19.18;28.87;98705.91;2345537;76;21286;-84
2021/04/10 15:00:52;;;;;;;12.90;8.80;;;;;;;19.12;28.98;98714.83;2345482;76;21737;-84
2021/04/10 15:03:54;;;;;;;11.15;6.65;;;;;;;19.08;28.91;98712.86;2345870;76;21238;-86
2021/04/10 15:06:55;;;;;;;8.05;6.35;;;;;;;19.01;28.75;98720.94;2345821;76;21244;-87
2021/04/10 15:09:57;;;;;;;8.30;5.20;;;;;;;18.96;28.95;98716.34;2345822;76;21668;-86
2021/04/10 15:12:59;;;;;;;6.58;4.87;;;;;;;18.90;29.12;98721.25;2345868;76;21133;-86